Mc Pherson, Kansas
Current Conditions -  °F | °C
As of 3:52 PM on Monday 22 Dec 2014 (Local Time) from KHUT Reporting Station
Few Clouds Few Clouds  
Wind Chill: 12°   Ceiling: Unl
Heat Index: 12°   Visibility: 10mi
Dew Point:   Wind: 13mph
Humidity: 45%   Direction: 300°WNW
Pressure: 29.54"   Gusts: NA
Location:  38.4089°N, 97.6556°W
Report Text: KHUT 222152Z 30011KT 10SM FEW065 12/01 A2954 RMK AO2 SLP997 T01220006
Loading
Personal Weather Stations






























Interactive Weather Map New forecast layout! Learn more

10-Day Weather Forecast

Advertisements
Track Severe Weather on mobile